sensor_id;sensor_type;location;lat;lon;timestamp;temperature;humidity
6008;DHT22;3032;49.484;11.112;2022-08-26T00:01:50;23.20;99.90
6008;DHT22;3032;49.484;11.112;2022-08-26T00:04:15;22.90;99.90
6008;DHT22;3032;49.484;11.112;2022-08-26T00:06:41;22.80;99.90
6008;DHT22;3032;49.484;11.112;2022-08-26T00:09:07;22.80;99.90
6008;DHT22;3032;49.484;11.112;2022-08-26T00:11:33;22.80;99.90
6008;DHT22;3032;49.484;11.112;2022-08-26T00:13:59;22.80;99.90
6008;DHT22;3032;49.484;11.112;2022-08-26T00:16:26;22.80;99.90
6008;DHT22;3032;49.484;11.112;2022-08-26T00:18:52;22.80;99.90
6008;DHT22;3032;49.484;11.112;2022-08-26T00:21:18;22.70;99.90
6008;DHT22;3032;49.484;11.112;2022-08-26T00:23:44;22.50;99.90
6008;DHT22;3032;49.484;11.112;2022-08-26T00:26:11;22.50;99.90
6008;DHT22;3032;49.484;11.112;2022-08-26T00:28:37;22.50;99.90
6008;DHT22;3032;49.484;11.112;2022-08-26T00:31:02;22.40;99.90
6008;DHT22;3032;49.484;11.112;2022-08-26T00:33:28;22.40;99.90
6008;DHT22;3032;49.484;11.112;2022-08-26T00:35:54;22.40;99.90
6008;DHT22;3032;49.484;11.112;2022-08-26T00:38:20;22.30;99.90
6008;DHT22;3032;49.484;11.112;2022-08-26T00:40:52;22.40;99.90
6008;DHT22;3032;49.484;11.112;2022-08-26T00:43:18;22.00;99.90
6008;DHT22;3032;49.484;11.112;2022-08-26T00:45:55;21.80;99.90
6008;DHT22;3032;49.484;11.112;2022-08-26T00:48:25;21.70;99.90
6008;DHT22;3032;49.484;11.112;2022-08-26T00:51:19;21.60;99.90
6008;DHT22;3032;49.484;11.112;2022-08-26T00:53:52;21.70;99.90
6008;DHT22;3032;49.484;11.112;2022-08-26T00:56:35;21.60;99.90
6008;DHT22;3032;49.484;11.112;2022-08-26T00:59:06;21.70;99.90
6008;DHT22;3032;49.484;11.112;2022-08-26T01:01:32;21.60;99.90
6008;DHT22;3032;49.484;11.112;2022-08-26T01:03:58;21.60;99.90
6008;DHT22;3032;49.484;11.112;2022-08-26T01:06:25;21.40;99.90
6008;DHT22;3032;49.484;11.112;2022-08-26T01:08:51;21.30;99.90
6008;DHT22;3032;49.484;11.112;2022-08-26T01:11:18;21.20;99.90
6008;DHT22;3032;49.484;11.112;2022-08-26T01:13:44;21.20;99.90
6008;DHT22;3032;49.484;11.112;2022-08-26T01:16:13;21.30;99.90
6008;DHT22;3032;49.484;11.112;2022-08-26T01:18:42;21.10;99.90
6008;DHT22;3032;49.484;11.112;2022-08-26T01:24:01;20.50;99.90
6008;DHT22;3032;49.484;11.112;2022-08-26T01:26:33;20.70;99.90
6008;DHT22;3032;49.484;11.112;2022-08-26T01:29:02;20.70;99.90
6008;DHT22;3032;49.484;11.112;2022-08-26T01:31:35;20.60;99.90
6008;DHT22;3032;49.484;11.112;2022-08-26T01:34:19;20.60;99.90
6008;DHT22;3032;49.484;11.112;2022-08-26T01:36:50;20.60;99.90
6008;DHT22;3032;49.484;11.112;2022-08-26T01:39:16;20.50;99.90
6008;DHT22;3032;49.484;11.112;2022-08-26T01:41:43;20.70;99.90
6008;DHT22;3032;49.484;11.112;2022-08-26T01:44:14;20.70;99.90
6008;DHT22;3032;49.484;11.112;2022-08-26T01:46:42;20.60;99.90
6008;DHT22;3032;49.484;11.112;2022-08-26T01:49:09;20.70;99.90
6008;DHT22;3032;49.484;11.112;2022-08-26T01:51:37;20.70;99.90
6008;DHT22;3032;49.484;11.112;2022-08-26T01:54:05;20.90;99.90
6008;DHT22;3032;49.484;11.112;2022-08-26T01:56:32;21.10;99.90
6008;DHT22;3032;49.484;11.112;2022-08-26T01:59:00;21.00;99.90
6008;DHT22;3032;49.484;11.112;2022-08-26T02:01:27;20.90;99.90
6008;DHT22;3032;49.484;11.112;2022-08-26T02:06:28;20.70;99.90
6008;DHT22;3032;49.484;11.112;2022-08-26T02:08:55;20.60;99.90
6008;DHT22;3032;49.484;11.112;2022-08-26T02:11:22;20.70;99.90
6008;DHT22;3032;49.484;11.112;2022-08-26T02:13:54;20.80;99.90
6008;DHT22;3032;49.484;11.112;2022-08-26T02:16:23;20.60;99.90
6008;DHT22;3032;49.484;11.112;2022-08-26T02:18:51;20.60;99.90
6008;DHT22;3032;49.484;11.112;2022-08-26T02:21:17;20.60;99.90
6008;DHT22;3032;49.484;11.112;2022-08-26T02:23:43;20.50;99.90
6008;DHT22;3032;49.484;11.112;2022-08-26T02:26:17;20.60;99.90
6008;DHT22;3032;49.484;11.112;2022-08-26T02:28:51;20.70;99.90
6008;DHT22;3032;49.484;11.112;2022-08-26T02:31:19;20.30;99.90
6008;DHT22;3032;49.484;11.112;2022-08-26T02:33:44;20.10;99.90
6008;DHT22;3032;49.484;11.112;2022-08-26T02:36:10;20.00;99.90
6008;DHT22;3032;49.484;11.112;2022-08-26T02:38:36;20.10;99.90
6008;DHT22;3032;49.484;11.112;2022-08-26T02:41:02;20.40;99.90
6008;DHT22;3032;49.484;11.112;2022-08-26T02:43:28;20.70;99.90
6008;DHT22;3032;49.484;11.112;2022-08-26T02:45:53;20.80;99.90
6008;DHT22;3032;49.484;11.112;2022-08-26T02:48:20;21.00;99.90
6008;DHT22;3032;49.484;11.112;2022-08-26T02:50:47;21.10;99.90
6008;DHT22;3032;49.484;11.112;2022-08-26T02:53:13;21.20;99.90
6008;DHT22;3032;49.484;11.112;2022-08-26T02:55:39;21.10;99.90
6008;DHT22;3032;49.484;11.112;2022-08-26T02:58:05;20.80;99.90
6008;DHT22;3032;49.484;11.112;2022-08-26T03:00:32;20.60;99.90
6008;DHT22;3032;49.484;11.112;2022-08-26T03:02:59;20.60;99.90
6008;DHT22;3032;49.484;11.112;2022-08-26T03:05:25;20.90;99.90
6008;DHT22;3032;49.484;11.112;2022-08-26T03:07:51;21.10;99.90
6008;DHT22;3032;49.484;11.112;2022-08-26T03:10:17;21.20;99.90
6008;DHT22;3032;49.484;11.112;2022-08-26T03:12:43;21.40;99.90
6008;DHT22;3032;49.484;11.112;2022-08-26T03:15:13;21.40;99.90
6008;DHT22;3032;49.484;11.112;2022-08-26T03:17:41;21.40;99.90
6008;DHT22;3032;49.484;11.112;2022-08-26T03:20:06;21.40;99.90
6008;DHT22;3032;49.484;11.112;2022-08-26T03:22:36;21.20;99.90
6008;DHT22;3032;49.484;11.112;2022-08-26T03:25:03;21.10;99.90
6008;DHT22;3032;49.484;11.112;2022-08-26T03:27:30;21.00;99.90
6008;DHT22;3032;49.484;11.112;2022-08-26T03:29:55;20.80;99.90
6008;DHT22;3032;49.484;11.112;2022-08-26T03:32:40;20.50;99.90
6008;DHT22;3032;49.484;11.112;2022-08-26T03:35:05;20.40;99.90
6008;DHT22;3032;49.484;11.112;2022-08-26T03:37:31;20.60;99.90
6008;DHT22;3032;49.484;11.112;2022-08-26T03:39:57;20.70;99.90
6008;DHT22;3032;49.484;11.112;2022-08-26T03:42:22;20.90;99.90
6008;DHT22;3032;49.484;11.112;2022-08-26T03:44:48;20.90;99.90
6008;DHT22;3032;49.484;11.112;2022-08-26T03:47:14;20.90;99.90
6008;DHT22;3032;49.484;11.112;2022-08-26T03:49:40;21.00;99.90
6008;DHT22;3032;49.484;11.112;2022-08-26T03:52:06;20.80;99.90
6008;DHT22;3032;49.484;11.112;2022-08-26T03:54:32;20.60;99.90
6008;DHT22;3032;49.484;11.112;2022-08-26T03:56:57;20.60;99.90
6008;DHT22;3032;49.484;11.112;2022-08-26T03:59:23;20.70;99.90
6008;DHT22;3032;49.484;11.112;2022-08-26T04:01:49;20.80;99.90
6008;DHT22;3032;49.484;11.112;2022-08-26T04:04:14;20.80;99.90
6008;DHT22;3032;49.484;11.112;2022-08-26T04:06:42;20.80;99.90
6008;DHT22;3032;49.484;11.112;2022-08-26T04:09:10;20.80;99.90
6008;DHT22;3032;49.484;11.112;2022-08-26T04:11:36;20.70;99.90
6008;DHT22;3032;49.484;11.112;2022-08-26T04:14:08;20.80;99.90
6008;DHT22;3032;49.484;11.112;2022-08-26T04:16:34;20.80;99.90
6008;DHT22;3032;49.484;11.112;2022-08-26T04:19:00;20.80;99.90
6008;DHT22;3032;49.484;11.112;2022-08-26T04:21:26;20.70;99.90
6008;DHT22;3032;49.484;11.112;2022-08-26T04:23:52;20.50;99.90
6008;DHT22;3032;49.484;11.112;2022-08-26T04:26:19;20.50;99.90
6008;DHT22;3032;49.484;11.112;2022-08-26T04:28:47;20.50;99.90
6008;DHT22;3032;49.484;11.112;2022-08-26T04:31:13;20.60;99.90
6008;DHT22;3032;49.484;11.112;2022-08-26T04:33:41;20.60;99.90
6008;DHT22;3032;49.484;11.112;2022-08-26T04:36:07;20.60;99.90
6008;DHT22;3032;49.484;11.112;2022-08-26T04:38:32;20.50;99.90
6008;DHT22;3032;49.484;11.112;2022-08-26T04:40:59;20.10;99.90
6008;DHT22;3032;49.484;11.112;2022-08-26T04:43:24;19.60;99.90
6008;DHT22;3032;49.484;11.112;2022-08-26T04:45:56;19.50;99.90
6008;DHT22;3032;49.484;11.112;2022-08-26T04:48:22;19.80;99.90
6008;DHT22;3032;49.484;11.112;2022-08-26T04:50:48;19.90;99.90
6008;DHT22;3032;49.484;11.112;2022-08-26T04:53:14;20.10;99.90
6008;DHT22;3032;49.484;11.112;2022-08-26T04:55:39;19.90;99.90
6008;DHT22;3032;49.484;11.112;2022-08-26T04:58:05;20.20;99.90
6008;DHT22;3032;49.484;11.112;2022-08-26T05:00:33;20.60;99.90
6008;DHT22;3032;49.484;11.112;2022-08-26T05:02:59;20.70;99.90
6008;DHT22;3032;49.484;11.112;2022-08-26T05:05:25;21.20;99.90
6008;DHT22;3032;49.484;11.112;2022-08-26T05:07:51;21.90;99.90
6008;DHT22;3032;49.484;11.112;2022-08-26T05:10:17;22.40;99.90
6008;DHT22;3032;49.484;11.112;2022-08-26T05:12:42;22.90;99.90
6008;DHT22;3032;49.484;11.112;2022-08-26T05:15:08;23.70;99.90
6008;DHT22;3032;49.484;11.112;2022-08-26T05:17:35;24.30;99.90
6008;DHT22;3032;49.484;11.112;2022-08-26T05:20:02;24.20;99.90
6008;DHT22;3032;49.484;11.112;2022-08-26T05:22:27;25.00;99.90
6008;DHT22;3032;49.484;11.112;2022-08-26T05:24:53;25.50;99.90
6008;DHT22;3032;49.484;11.112;2022-08-26T05:27:18;26.00;99.90
6008;DHT22;3032;49.484;11.112;2022-08-26T05:29:44;26.00;99.90
6008;DHT22;3032;49.484;11.112;2022-08-26T05:32:10;25.90;99.90
6008;DHT22;3032;49.484;11.112;2022-08-26T05:34:36;25.50;99.90
6008;DHT22;3032;49.484;11.112;2022-08-26T05:37:02;25.60;99.90
6008;DHT22;3032;49.484;11.112;2022-08-26T05:39:31;25.90;99.90
6008;DHT22;3032;49.484;11.112;2022-08-26T05:41:56;26.80;99.90
6008;DHT22;3032;49.484;11.112;2022-08-26T05:44:22;27.10;99.90
6008;DHT22;3032;49.484;11.112;2022-08-26T05:46:48;26.70;99.90
6008;DHT22;3032;49.484;11.112;2022-08-26T05:49:14;26.40;99.90
6008;DHT22;3032;49.484;11.112;2022-08-26T05:51:42;26.70;99.90
6008;DHT22;3032;49.484;11.112;2022-08-26T05:54:09;26.70;99.90
6008;DHT22;3032;49.484;11.112;2022-08-26T05:56:35;27.40;99.90
6008;DHT22;3032;49.484;11.112;2022-08-26T05:59:01;27.20;99.90
6008;DHT22;3032;49.484;11.112;2022-08-26T06:01:28;27.10;99.90
6008;DHT22;3032;49.484;11.112;2022-08-26T06:03:56;27.00;99.90
6008;DHT22;3032;49.484;11.112;2022-08-26T06:06:25;26.90;99.90
6008;DHT22;3032;49.484;11.112;2022-08-26T06:08:51;26.00;99.90
6008;DHT22;3032;49.484;11.112;2022-08-26T06:11:20;25.80;99.90
6008;DHT22;3032;49.484;11.112;2022-08-26T06:13:53;25.50;99.90
6008;DHT22;3032;49.484;11.112;2022-08-26T06:16:21;25.40;99.90
6008;DHT22;3032;49.484;11.112;2022-08-26T06:18:48;25.00;99.90
6008;DHT22;3032;49.484;11.112;2022-08-26T06:23:40;25.50;99.90
6008;DHT22;3032;49.484;11.112;2022-08-26T06:26:25;26.90;99.90
6008;DHT22;3032;49.484;11.112;2022-08-26T06:28:51;28.30;99.90
6008;DHT22;3032;49.484;11.112;2022-08-26T06:31:17;29.20;99.90
6008;DHT22;3032;49.484;11.112;2022-08-26T06:33:43;29.40;99.90
6008;DHT22;3032;49.484;11.112;2022-08-26T06:36:16;30.00;99.90
6008;DHT22;3032;49.484;11.112;2022-08-26T06:38:44;30.30;99.90
6008;DHT22;3032;49.484;11.112;2022-08-26T06:41:10;31.40;99.90
6008;DHT22;3032;49.484;11.112;2022-08-26T06:43:36;32.40;98.40
6008;DHT22;3032;49.484;11.112;2022-08-26T06:46:05;33.40;96.40
6008;DHT22;3032;49.484;11.112;2022-08-26T06:48:31;34.30;94.10
6008;DHT22;3032;49.484;11.112;2022-08-26T06:51:12;33.50;93.40
6008;DHT22;3032;49.484;11.112;2022-08-26T06:53:39;32.70;94.40
6008;DHT22;3032;49.484;11.112;2022-08-26T06:56:07;32.90;94.10
6008;DHT22;3032;49.484;11.112;2022-08-26T06:58:35;33.40;93.70
6008;DHT22;3032;49.484;11.112;2022-08-26T07:01:03;34.50;92.60
6008;DHT22;3032;49.484;11.112;2022-08-26T07:03:28;35.60;90.70
6008;DHT22;3032;49.484;11.112;2022-08-26T07:06:01;35.30;89.70
6008;DHT22;3032;49.484;11.112;2022-08-26T07:08:27;35.30;89.30
6008;DHT22;3032;49.484;11.112;2022-08-26T07:10:53;35.50;88.20
6008;DHT22;3032;49.484;11.112;2022-08-26T07:13:18;35.40;87.70
6008;DHT22;3032;49.484;11.112;2022-08-26T07:15:46;35.00;87.00
6008;DHT22;3032;49.484;11.112;2022-08-26T07:18:12;34.60;88.30
6008;DHT22;3032;49.484;11.112;2022-08-26T07:20:38;34.50;88.60
6008;DHT22;3032;49.484;11.112;2022-08-26T07:23:08;34.80;88.90
6008;DHT22;3032;49.484;11.112;2022-08-26T07:25:39;35.70;86.60
6008;DHT22;3032;49.484;11.112;2022-08-26T07:28:05;35.90;84.70
6008;DHT22;3032;49.484;11.112;2022-08-26T07:30:30;35.20;85.00
6008;DHT22;3032;49.484;11.112;2022-08-26T07:32:56;34.30;86.20
6008;DHT22;3032;49.484;11.112;2022-08-26T07:35:24;33.90;87.70
6008;DHT22;3032;49.484;11.112;2022-08-26T07:37:50;32.60;90.20
6008;DHT22;3032;49.484;11.112;2022-08-26T07:40:16;32.70;90.50
6008;DHT22;3032;49.484;11.112;2022-08-26T07:42:41;32.70;90.80
6008;DHT22;3032;49.484;11.112;2022-08-26T07:45:07;33.30;90.10
6008;DHT22;3032;49.484;11.112;2022-08-26T07:47:33;33.30;90.10
6008;DHT22;3032;49.484;11.112;2022-08-26T07:49:59;32.30;90.90
6008;DHT22;3032;49.484;11.112;2022-08-26T07:52:28;32.50;91.20
6008;DHT22;3032;49.484;11.112;2022-08-26T07:54:59;33.00;90.50
6008;DHT22;3032;49.484;11.112;2022-08-26T07:57:25;31.40;92.30
6008;DHT22;3032;49.484;11.112;2022-08-26T07:59:52;32.40;91.70
6008;DHT22;3032;49.484;11.112;2022-08-26T08:02:17;33.00;91.60
6008;DHT22;3032;49.484;11.112;2022-08-26T08:04:43;34.70;90.00
6008;DHT22;3032;49.484;11.112;2022-08-26T08:07:09;35.30;87.50
6008;DHT22;3032;49.484;11.112;2022-08-26T08:09:34;35.70;86.40
6008;DHT22;3032;49.484;11.112;2022-08-26T08:12:00;35.80;85.80
6008;DHT22;3032;49.484;11.112;2022-08-26T08:14:26;35.60;86.50
6008;DHT22;3032;49.484;11.112;2022-08-26T08:16:51;36.50;83.90
6008;DHT22;3032;49.484;11.112;2022-08-26T08:19:17;37.40;82.60
6008;DHT22;3032;49.484;11.112;2022-08-26T08:21:42;37.30;80.70
6008;DHT22;3032;49.484;11.112;2022-08-26T08:24:09;34.30;84.90
6008;DHT22;3032;49.484;11.112;2022-08-26T08:26:35;35.60;83.60
6008;DHT22;3032;49.484;11.112;2022-08-26T08:29:01;36.60;82.20
6008;DHT22;3032;49.484;11.112;2022-08-26T08:31:30;36.60;81.50
6008;DHT22;3032;49.484;11.112;2022-08-26T08:33:56;38.00;78.60
6008;DHT22;3032;49.484;11.112;2022-08-26T08:36:21;39.20;75.70
6008;DHT22;3032;49.484;11.112;2022-08-26T08:38:47;40.20;73.70
6008;DHT22;3032;49.484;11.112;2022-08-26T08:44:20;41.40;68.90
6008;DHT22;3032;49.484;11.112;2022-08-26T08:46:50;41.00;68.00
6008;DHT22;3032;49.484;11.112;2022-08-26T08:49:17;40.20;68.50
6008;DHT22;3032;49.484;11.112;2022-08-26T08:52:00;40.50;68.70
6008;DHT22;3032;49.484;11.112;2022-08-26T08:54:26;40.50;66.70
6008;DHT22;3032;49.484;11.112;2022-08-26T08:57:11;40.20;67.20
6008;DHT22;3032;49.484;11.112;2022-08-26T08:59:47;39.70;67.40
6008;DHT22;3032;49.484;11.112;2022-08-26T09:02:28;39.40;67.60
6008;DHT22;3032;49.484;11.112;2022-08-26T09:07:52;39.10;68.70
6008;DHT22;3032;49.484;11.112;2022-08-26T09:13:10;40.40;66.80
6008;DHT22;3032;49.484;11.112;2022-08-26T09:21:02;38.80;67.10
6008;DHT22;3032;49.484;11.112;2022-08-26T09:23:28;37.90;69.20
6008;DHT22;3032;49.484;11.112;2022-08-26T09:25:58;37.80;69.40
6008;DHT22;3032;49.484;11.112;2022-08-26T09:28:28;38.10;69.50
6008;DHT22;3032;49.484;11.112;2022-08-26T09:31:14;39.20;66.90
6008;DHT22;3032;49.484;11.112;2022-08-26T09:33:43;39.20;67.10
6008;DHT22;3032;49.484;11.112;2022-08-26T09:36:16;40.20;65.80
6008;DHT22;3032;49.484;11.112;2022-08-26T09:38:43;40.60;63.80
6008;DHT22;3032;49.484;11.112;2022-08-26T09:41:28;41.40;61.60
6008;DHT22;3032;49.484;11.112;2022-08-26T09:46:56;40.30;62.80
6008;DHT22;3032;49.484;11.112;2022-08-26T09:49:34;40.60;63.10
6008;DHT22;3032;49.484;11.112;2022-08-26T09:54:35;41.80;60.40
6008;DHT22;3032;49.484;11.112;2022-08-26T09:57:25;41.80;60.50
6008;DHT22;3032;49.484;11.112;2022-08-26T09:59:52;41.70;60.10
6008;DHT22;3032;49.484;11.112;2022-08-26T10:02:35;42.10;59.60
6008;DHT22;3032;49.484;11.112;2022-08-26T10:05:05;40.90;58.70
6008;DHT22;3032;49.484;11.112;2022-08-26T10:07:49;39.70;60.20
6008;DHT22;3032;49.484;11.112;2022-08-26T10:10:25;39.00;61.70
6008;DHT22;3032;49.484;11.112;2022-08-26T10:18:41;40.30;59.90
6008;DHT22;3032;49.484;11.112;2022-08-26T10:21:14;38.60;61.20
6008;DHT22;3032;49.484;11.112;2022-08-26T10:23:47;37.90;62.60
6008;DHT22;3032;49.484;11.112;2022-08-26T10:26:18;36.90;65.00
6008;DHT22;3032;49.484;11.112;2022-08-26T10:28:52;35.90;67.20
6008;DHT22;3032;49.484;11.112;2022-08-26T10:33:48;34.60;70.90
6008;DHT22;3032;49.484;11.112;2022-08-26T10:36:17;34.40;71.40
6008;DHT22;3032;49.484;11.112;2022-08-26T10:39:05;34.40;71.30
6008;DHT22;3032;49.484;11.112;2022-08-26T10:41:37;34.40;71.60
6008;DHT22;3032;49.484;11.112;2022-08-26T10:44:06;34.60;71.10
6008;DHT22;3032;49.484;11.112;2022-08-26T10:46:46;36.00;68.20
6008;DHT22;3032;49.484;11.112;2022-08-26T10:49:15;38.00;65.80
6008;DHT22;3032;49.484;11.112;2022-08-26T10:54:15;39.70;62.70
6008;DHT22;3032;49.484;11.112;2022-08-26T11:02:37;42.80;56.30
6008;DHT22;3032;49.484;11.112;2022-08-26T11:05:18;42.80;55.60
6008;DHT22;3032;49.484;11.112;2022-08-26T11:07:48;42.70;56.30
6008;DHT22;3032;49.484;11.112;2022-08-26T11:31:10;40.70;56.50
6008;DHT22;3032;49.484;11.112;2022-08-26T11:33:44;41.30;56.20
6008;DHT22;3032;49.484;11.112;2022-08-26T11:39:20;41.40;55.70
6008;DHT22;3032;49.484;11.112;2022-08-26T11:41:49;41.30;56.40
6008;DHT22;3032;49.484;11.112;2022-08-26T11:44:22;40.10;56.90
6008;DHT22;3032;49.484;11.112;2022-08-26T11:46:57;39.50;57.70
6008;DHT22;3032;49.484;11.112;2022-08-26T11:49:24;39.10;58.00
6008;DHT22;3032;49.484;11.112;2022-08-26T11:51:51;38.90;57.50
6008;DHT22;3032;49.484;11.112;2022-08-26T11:54:19;38.50;58.30
6008;DHT22;3032;49.484;11.112;2022-08-26T11:56:49;38.20;58.40
6008;DHT22;3032;49.484;11.112;2022-08-26T11:59:22;37.70;59.00
6008;DHT22;3032;49.484;11.112;2022-08-26T12:01:51;37.20;61.20
6008;DHT22;3032;49.484;11.112;2022-08-26T12:04:35;37.50;60.10
6008;DHT22;3032;49.484;11.112;2022-08-26T12:07:03;37.70;60.40
6008;DHT22;3032;49.484;11.112;2022-08-26T12:09:31;37.70;61.70
6008;DHT22;3032;49.484;11.112;2022-08-26T12:12:36;37.70;63.80
6008;DHT22;3032;49.484;11.112;2022-08-26T12:17:40;37.30;67.10
6008;DHT22;3032;49.484;11.112;2022-08-26T12:20:17;37.30;67.40
6008;DHT22;3032;49.484;11.112;2022-08-26T12:22:43;37.30;66.20
6008;DHT22;3032;49.484;11.112;2022-08-26T12:25:09;37.20;64.50
6008;DHT22;3032;49.484;11.112;2022-08-26T12:27:43;37.20;65.00
6008;DHT22;3032;49.484;11.112;2022-08-26T12:30:14;37.40;63.40
6008;DHT22;3032;49.484;11.112;2022-08-26T12:32:43;38.00;63.60
6008;DHT22;3032;49.484;11.112;2022-08-26T12:35:12;38.50;62.00
6008;DHT22;3032;49.484;11.112;2022-08-26T12:37:41;39.00;60.90
6008;DHT22;3032;49.484;11.112;2022-08-26T12:42:57;39.60;60.00
6008;DHT22;3032;49.484;11.112;2022-08-26T12:45:30;39.70;58.30
6008;DHT22;3032;49.484;11.112;2022-08-26T12:47:59;39.70;57.70
6008;DHT22;3032;49.484;11.112;2022-08-26T12:50:33;39.70;56.90
6008;DHT22;3032;49.484;11.112;2022-08-26T12:55:55;39.70;56.60
6008;DHT22;3032;49.484;11.112;2022-08-26T12:58:35;39.60;56.60
6008;DHT22;3032;49.484;11.112;2022-08-26T13:08:46;40.00;54.70
6008;DHT22;3032;49.484;11.112;2022-08-26T13:11:18;40.60;55.20
6008;DHT22;3032;49.484;11.112;2022-08-26T13:13:48;40.60;54.40
6008;DHT22;3032;49.484;11.112;2022-08-26T13:16:16;40.30;55.10
6008;DHT22;3032;49.484;11.112;2022-08-26T13:18:45;40.40;55.30
6008;DHT22;3032;49.484;11.112;2022-08-26T13:21:20;40.40;55.40
6008;DHT22;3032;49.484;11.112;2022-08-26T13:23:46;39.70;55.20
6008;DHT22;3032;49.484;11.112;2022-08-26T13:26:12;38.80;56.50
6008;DHT22;3032;49.484;11.112;2022-08-26T13:28:38;37.60;57.80
6008;DHT22;3032;49.484;11.112;2022-08-26T13:31:04;36.60;58.70
6008;DHT22;3032;49.484;11.112;2022-08-26T13:33:31;36.20;59.60
6008;DHT22;3032;49.484;11.112;2022-08-26T13:35:57;35.40;61.40
6008;DHT22;3032;49.484;11.112;2022-08-26T13:38:23;34.80;63.10
6008;DHT22;3032;49.484;11.112;2022-08-26T13:40:49;34.30;64.10
6008;DHT22;3032;49.484;11.112;2022-08-26T13:43:15;33.50;66.30
6008;DHT22;3032;49.484;11.112;2022-08-26T13:45:40;32.30;69.80
6008;DHT22;3032;49.484;11.112;2022-08-26T13:48:06;31.20;72.50
6008;DHT22;3032;49.484;11.112;2022-08-26T13:50:33;28.50;78.80
6008;DHT22;3032;49.484;11.112;2022-08-26T13:52:59;27.20;85.10
6008;DHT22;3032;49.484;11.112;2022-08-26T13:55:26;26.60;90.50
6008;DHT22;3032;49.484;11.112;2022-08-26T13:57:52;26.10;96.20
6008;DHT22;3032;49.484;11.112;2022-08-26T14:00:18;25.40;99.90
6008;DHT22;3032;49.484;11.112;2022-08-26T14:02:45;24.80;99.90
6008;DHT22;3032;49.484;11.112;2022-08-26T14:05:11;24.30;99.90
6008;DHT22;3032;49.484;11.112;2022-08-26T14:07:36;23.30;99.90
6008;DHT22;3032;49.484;11.112;2022-08-26T14:10:02;21.90;99.90
6008;DHT22;3032;49.484;11.112;2022-08-26T14:12:28;21.20;99.90
6008;DHT22;3032;49.484;11.112;2022-08-26T14:14:54;20.70;99.90
6008;DHT22;3032;49.484;11.112;2022-08-26T14:17:20;20.40;99.90
6008;DHT22;3032;49.484;11.112;2022-08-26T14:19:48;20.30;99.90
6008;DHT22;3032;49.484;11.112;2022-08-26T14:22:16;20.30;99.90
6008;DHT22;3032;49.484;11.112;2022-08-26T14:24:43;20.40;99.90
6008;DHT22;3032;49.484;11.112;2022-08-26T14:27:09;20.40;99.90
6008;DHT22;3032;49.484;11.112;2022-08-26T14:29:35;20.50;99.90
6008;DHT22;3032;49.484;11.112;2022-08-26T14:32:05;21.10;99.90
6008;DHT22;3032;49.484;11.112;2022-08-26T14:34:36;21.70;99.90
6008;DHT22;3032;49.484;11.112;2022-08-26T14:37:02;21.90;99.90
6008;DHT22;3032;49.484;11.112;2022-08-26T14:39:27;22.20;99.90
6008;DHT22;3032;49.484;11.112;2022-08-26T14:41:54;22.40;99.90
6008;DHT22;3032;49.484;11.112;2022-08-26T14:44:25;22.70;99.90
6008;DHT22;3032;49.484;11.112;2022-08-26T14:46:52;21.70;99.90
6008;DHT22;3032;49.484;11.112;2022-08-26T14:49:19;21.40;99.90
6008;DHT22;3032;49.484;11.112;2022-08-26T14:51:45;22.00;99.90
6008;DHT22;3032;49.484;11.112;2022-08-26T14:54:12;22.30;99.90
6008;DHT22;3032;49.484;11.112;2022-08-26T14:56:51;22.70;99.90
6008;DHT22;3032;49.484;11.112;2022-08-26T14:59:21;23.00;99.90
6008;DHT22;3032;49.484;11.112;2022-08-26T15:01:47;22.20;99.90
6008;DHT22;3032;49.484;11.112;2022-08-26T15:04:13;21.40;99.90
6008;DHT22;3032;49.484;11.112;2022-08-26T15:06:39;21.50;99.90
6008;DHT22;3032;49.484;11.112;2022-08-26T15:09:04;21.70;99.90
6008;DHT22;3032;49.484;11.112;2022-08-26T15:11:30;22.10;99.90
6008;DHT22;3032;49.484;11.112;2022-08-26T15:13:56;22.30;99.90
6008;DHT22;3032;49.484;11.112;2022-08-26T15:16:24;22.70;99.90
6008;DHT22;3032;49.484;11.112;2022-08-26T15:18:50;22.40;99.90
6008;DHT22;3032;49.484;11.112;2022-08-26T15:21:17;22.40;99.90
6008;DHT22;3032;49.484;11.112;2022-08-26T15:23:44;22.50;99.90
6008;DHT22;3032;49.484;11.112;2022-08-26T15:26:10;22.50;99.90
6008;DHT22;3032;49.484;11.112;2022-08-26T15:28:37;22.70;99.90
6008;DHT22;3032;49.484;11.112;2022-08-26T15:31:04;23.10;99.90
6008;DHT22;3032;49.484;11.112;2022-08-26T15:33:30;23.00;99.90
6008;DHT22;3032;49.484;11.112;2022-08-26T15:36:00;23.10;99.90
6008;DHT22;3032;49.484;11.112;2022-08-26T15:38:34;23.30;99.90
6008;DHT22;3032;49.484;11.112;2022-08-26T15:41:01;23.40;99.90
6008;DHT22;3032;49.484;11.112;2022-08-26T15:43:27;23.40;99.90
6008;DHT22;3032;49.484;11.112;2022-08-26T15:45:53;23.60;99.90
6008;DHT22;3032;49.484;11.112;2022-08-26T15:48:20;23.80;99.90
6008;DHT22;3032;49.484;11.112;2022-08-26T15:50:55;23.90;99.90
6008;DHT22;3032;49.484;11.112;2022-08-26T15:53:21;23.90;99.90
6008;DHT22;3032;49.484;11.112;2022-08-26T15:55:48;23.50;99.90
6008;DHT22;3032;49.484;11.112;2022-08-26T15:58:14;22.90;99.90
6008;DHT22;3032;49.484;11.112;2022-08-26T16:00:40;22.90;99.90
6008;DHT22;3032;49.484;11.112;2022-08-26T16:03:06;22.90;99.90
6008;DHT22;3032;49.484;11.112;2022-08-26T16:05:36;22.60;99.90
6008;DHT22;3032;49.484;11.112;2022-08-26T16:08:02;22.70;99.90
6008;DHT22;3032;49.484;11.112;2022-08-26T16:10:28;23.00;99.90
6008;DHT22;3032;49.484;11.112;2022-08-26T16:12:55;23.00;99.90
6008;DHT22;3032;49.484;11.112;2022-08-26T16:15:21;23.00;99.90
6008;DHT22;3032;49.484;11.112;2022-08-26T16:17:46;22.90;99.90
6008;DHT22;3032;49.484;11.112;2022-08-26T16:20:12;22.90;99.90
6008;DHT22;3032;49.484;11.112;2022-08-26T16:22:37;23.00;99.90
6008;DHT22;3032;49.484;11.112;2022-08-26T16:25:03;22.60;99.90
6008;DHT22;3032;49.484;11.112;2022-08-26T16:27:29;22.30;99.90
6008;DHT22;3032;49.484;11.112;2022-08-26T16:29:56;22.30;99.90
6008;DHT22;3032;49.484;11.112;2022-08-26T16:32:22;22.40;99.90
6008;DHT22;3032;49.484;11.112;2022-08-26T16:34:47;22.00;99.90
6008;DHT22;3032;49.484;11.112;2022-08-26T16:37:13;21.90;99.90
6008;DHT22;3032;49.484;11.112;2022-08-26T16:39:39;21.80;99.90
6008;DHT22;3032;49.484;11.112;2022-08-26T16:42:04;21.20;99.90
6008;DHT22;3032;49.484;11.112;2022-08-26T16:44:30;21.20;99.90
6008;DHT22;3032;49.484;11.112;2022-08-26T16:47:17;21.70;99.90
6008;DHT22;3032;49.484;11.112;2022-08-26T16:49:43;22.10;99.90
6008;DHT22;3032;49.484;11.112;2022-08-26T16:52:10;21.60;99.90
6008;DHT22;3032;49.484;11.112;2022-08-26T16:54:37;21.30;99.90
6008;DHT22;3032;49.484;11.112;2022-08-26T16:57:04;21.60;99.90
6008;DHT22;3032;49.484;11.112;2022-08-26T16:59:31;21.70;99.90
6008;DHT22;3032;49.484;11.112;2022-08-26T17:01:57;21.60;99.90
6008;DHT22;3032;49.484;11.112;2022-08-26T17:04:22;21.60;99.90
6008;DHT22;3032;49.484;11.112;2022-08-26T17:06:48;21.40;99.90
6008;DHT22;3032;49.484;11.112;2022-08-26T17:09:14;21.20;99.90
6008;DHT22;3032;49.484;11.112;2022-08-26T17:11:40;20.80;99.90
6008;DHT22;3032;49.484;11.112;2022-08-26T17:14:06;20.80;99.90
6008;DHT22;3032;49.484;11.112;2022-08-26T17:16:32;20.80;99.90